Time;durP1;ratioP1;P1;durP2;ratioP2;P2;SDS_P1;SDS_P2;PMS_P1;PMS_P2;Temp;Humidity;BMP_temperature;BMP_pressure;BME280_temperature;BME280_humidity;BME280_pressure;Samples;Min_cycle;Max_cycle;Signal;HPM_P1;HPM_P2
2022/09/04 00:00:36;;;;;;;;;;;;;;;21.53;47.59;99801.47;4476010;32;34594;-63
2022/09/04 00:03:07;;;;;;;;;;;;;;;21.49;47.75;99803.72;4473649;32;32397;-63
2022/09/04 00:05:50;;;;;;;;;;;;;;;21.46;47.80;99801.38;4480802;32;34344;-64
2022/09/04 00:08:33;;;;;;;;;;;;;;;21.43;47.99;99799.00;4472168;32;34092;-64
2022/09/04 00:11:08;;;;;;;;;;;;;;;21.44;47.99;99803.41;4475808;32;34893;-63
2022/09/04 00:13:56;;;;;;;;;;;;;;;21.36;48.48;99800.78;4479335;32;34585;-62
2022/09/04 00:16:27;;;;;;;;;;;;;;;21.37;48.34;99803.31;4474198;32;34130;-62
2022/09/04 00:19:14;;;;;;;;;;;;;;;21.25;48.75;99806.59;4470069;32;32862;-63
2022/09/04 00:21:44;;;;;;;;;;;;;;;21.30;48.64;99802.31;4475826;32;32763;-62
2022/09/04 00:24:16;;;;;;;;;;;;;;;21.25;48.95;99806.59;4480081;31;33164;-62
2022/09/04 00:27:02;;;;;;;;;;;;;;;21.26;48.82;99811.03;4455281;32;33593;-63
2022/09/04 00:29:36;;;;;;;;;;;;;;;21.21;48.95;99814.28;4475352;32;34177;-62
2022/09/04 00:32:07;;;;;;;;;;;;;;;21.24;48.93;99808.47;4475571;32;34478;-61
2022/09/04 00:34:44;;;;;;;;;;;;;;;21.23;49.08;99814.97;4478110;31;33494;-62
2022/09/04 00:37:15;;;;;;;;;;;;;;;21.21;49.23;99813.44;4481950;32;33755;-63
2022/09/04 00:39:44;;;;;;;;;;;;;;;21.16;49.52;99814.00;4470971;32;33093;-63
2022/09/04 00:42:17;;;;;;;;;;;;;;;21.20;49.30;99812.59;4476242;32;35425;-62
2022/09/04 00:45:03;;;;;;;;;;;;;;;21.19;49.40;99808.19;4478001;31;33721;-62
2022/09/04 00:47:50;;;;;;;;;;;;;;;21.20;49.41;99809.03;4474753;32;34079;-62
2022/09/04 00:50:30;;;;;;;;;;;;;;;21.27;49.29;99820.88;4477183;31;34100;-61
2022/09/04 00:53:16;;;;;;;;;;;;;;;21.25;49.44;99815.66;4468341;32;35215;-62
2022/09/04 00:55:51;;;;;;;;;;;;;;;21.31;49.28;99823.06;4467344;32;33313;-62
2022/09/04 00:58:37;;;;;;;;;;;;;;;21.34;49.25;99813.69;4471959;32;34037;-62
2022/09/04 01:01:05;;;;;;;;;;;;;;;21.35;49.37;99809.97;4474880;31;33993;-62
2022/09/04 01:03:52;;;;;;;;;;;;;;;21.27;49.86;99818.16;4473246;32;34018;-61
2022/09/04 01:06:28;;;;;;;;;;;;;;;21.14;50.02;99808.72;4471366;32;34480;-61
2022/09/04 01:08:58;;;;;;;;;;;;;;;21.15;50.14;99810.44;4480337;32;34152;-61
2022/09/04 01:11:30;;;;;;;;;;;;;;;21.07;50.33;99815.94;4482377;31;35461;-65
2022/09/04 01:14:12;;;;;;;;;;;;;;;21.10;50.32;99814.72;4480823;32;34429;-62
2022/09/04 01:16:42;;;;;;;;;;;;;;;21.20;50.57;99812.59;4479911;31;33791;-62
2022/09/04 01:19:19;;;;;;;;;;;;;;;21.15;50.98;99824.06;4481706;32;34622;-62
2022/09/04 01:21:47;;;;;;;;;;;;;;;21.39;50.37;99825.75;4473585;32;34249;-62
2022/09/04 01:24:33;;;;;;;;;;;;;;;21.54;49.92;99828.53;4473036;32;34548;-62
2022/09/04 01:27:00;;;;;;;;;;;;;;;21.53;49.83;99831.44;4473847;32;33551;-62
2022/09/04 01:29:32;;;;;;;;;;;;;;;21.70;49.45;99843.88;4479491;31;34239;-61
2022/09/04 01:32:11;;;;;;;;;;;;;;;21.74;49.17;99841.63;4466703;32;34031;-62
2022/09/04 01:34:48;;;;;;;;;;;;;;;21.76;49.21;99848.56;4479581;31;34217;-62
2022/09/04 01:37:29;;;;;;;;;;;;;;;21.44;49.86;99846.13;4478188;32;33623;-62
2022/09/04 01:40:26;;;;;;;;;;;;;;;21.50;49.77;99837.25;4480324;31;34088;-62
2022/09/04 01:43:22;;;;;;;;;;;;;;;21.61;49.28;99840.37;4469675;32;33355;-62
2022/09/04 01:45:53;;;;;;;;;;;;;;;21.63;49.42;99843.75;4479983;31;33329;-62
2022/09/04 01:48:25;;;;;;;;;;;;;;;21.67;49.31;99849.69;4480946;32;32123;-62
2022/09/04 01:50:53;;;;;;;;;;;;;;;21.60;49.94;99851.44;4462370;32;35243;-62
2022/09/04 01:53:23;;;;;;;;;;;;;;;21.68;49.59;99853.28;4465514;32;34278;-62
2022/09/04 01:55:59;;;;;;;;;;;;;;;21.75;49.53;99851.50;4476813;31;34670;-62
2022/09/04 01:58:34;;;;;;;;;;;;;;;21.83;49.41;99843.25;4475846;32;33674;-62
2022/09/04 02:01:14;;;;;;;;;;;;;;;21.80;49.31;99851.81;4481079;31;33935;-63
2022/09/04 02:03:51;;;;;;;;;;;;;;;21.89;49.40;99853.38;4475865;32;32869;-62
2022/09/04 02:06:24;;;;;;;;;;;;;;;21.83;49.36;99845.97;4474690;31;32529;-62
2022/09/04 02:08:54;;;;;;;;;;;;;;;21.89;49.15;99847.94;4478600;32;34701;-63
2022/09/04 02:11:21;;;;;;;;;;;;;;;21.98;48.92;99844.09;4479532;31;34914;-63
2022/09/04 02:14:07;;;;;;;;;;;;;;;21.89;49.69;99855.28;4467283;32;35208;-62
2022/09/04 02:16:55;;;;;;;;;;;;;;;21.74;49.97;99841.63;4475789;32;34486;-63
2022/09/04 02:19:41;;;;;;;;;;;;;;;21.90;49.61;99843.38;4478651;32;33610;-63
2022/09/04 02:22:14;;;;;;;;;;;;;;;21.73;49.76;99846.22;4474704;31;32698;-63
2022/09/04 02:25:01;;;;;;;;;;;;;;;21.79;49.69;99847.34;4467538;32;34183;-62
2022/09/04 02:27:34;;;;;;;;;;;;;;;21.80;49.75;99840.91;4469023;31;34200;-62
2022/09/04 02:30:03;;;;;;;;;;;;;;;21.91;49.59;99854.06;4479998;32;32635;-63
2022/09/04 02:32:36;;;;;;;;;;;;;;;22.03;49.00;99854.47;4465825;32;32604;-61
2022/09/04 02:35:14;;;;;;;;;;;;;;;22.04;49.15;99862.44;4481647;31;33782;-61
2022/09/04 02:38:00;;;;;;;;;;;;;;;22.13;48.93;99854.19;4469430;32;34735;-61
2022/09/04 02:40:27;;;;;;;;;;;;;;;22.02;48.94;99855.47;4482315;31;33656;-61
2022/09/04 02:42:54;;;;;;;;;;;;;;;21.85;49.30;99858.38;4480719;32;33949;-62
2022/09/04 02:45:24;;;;;;;;;;;;;;;21.71;49.82;99850.19;4481353;31;32941;-62
2022/09/04 02:48:12;;;;;;;;;;;;;;;21.90;49.56;99852.38;4469910;32;34545;-62
2022/09/04 02:50:46;;;;;;;;;;;;;;;21.80;50.26;99854.53;4465964;32;33445;-62
2022/09/04 02:53:29;;;;;;;;;;;;;;;21.30;50.83;99855.91;4478011;32;34977;-62
2022/09/04 02:56:00;;;;;;;;;;;;;;;21.84;49.91;99856.69;4480374;31;34354;-63
2022/09/04 02:58:38;;;;;;;;;;;;;;;21.98;49.60;99856.87;4473327;32;34376;-62
2022/09/04 03:01:22;;;;;;;;;;;;;;;21.96;49.51;99851.63;4473060;32;33786;-62
2022/09/04 03:03:50;;;;;;;;;;;;;;;22.15;48.97;99857.56;4466480;32;33924;-63
2022/09/04 03:06:21;;;;;;;;;;;;;;;21.94;49.65;99861.03;4473889;31;34145;-62
2022/09/04 03:08:51;;;;;;;;;;;;;;;22.17;48.78;99847.34;4478780;32;34318;-63
2022/09/04 03:11:25;;;;;;;;;;;;;;;22.07;49.21;99859.34;4467768;32;34769;-62
2022/09/04 03:13:55;;;;;;;;;;;;;;;22.17;48.79;99850.09;4471139;32;33942;-63
2022/09/04 03:16:25;;;;;;;;;;;;;;;22.16;48.85;99845.66;4476353;32;34351;-63
2022/09/04 03:19:08;;;;;;;;;;;;;;;22.14;48.72;99853.16;4465014;32;33521;-62
2022/09/04 03:21:59;;;;;;;;;;;;;;;22.07;48.82;99853.06;4466547;32;32052;-64
2022/09/04 03:24:26;;;;;;;;;;;;;;;22.01;49.27;99854.63;4475944;32;34126;-63
2022/09/04 03:26:55;;;;;;;;;;;;;;;21.84;49.33;99866.75;4481206;32;34241;-62
2022/09/04 03:29:29;;;;;;;;;;;;;;;21.94;49.27;99867.31;4465990;32;34241;-63
2022/09/04 03:31:58;;;;;;;;;;;;;;;21.98;49.20;99868.62;4473026;32;32130;-63
2022/09/04 03:34:29;;;;;;;;;;;;;;;22.07;48.77;99863.94;4480102;31;33719;-63
2022/09/04 03:37:04;;;;;;;;;;;;;;;21.82;49.48;99872.34;4468003;32;35315;-62
2022/09/04 03:39:51;;;;;;;;;;;;;;;21.76;49.79;99875.81;4473393;32;34356;-62
2022/09/04 03:42:41;;;;;;;;;;;;;;;21.80;49.86;99877.16;4473690;32;33343;-62
2022/09/04 03:45:19;;;;;;;;;;;;;;;21.86;49.58;99881.88;4469341;32;33556;-63
2022/09/04 03:48:10;;;;;;;;;;;;;;;21.92;49.21;99885.72;4467530;32;32834;-63
2022/09/04 03:50:57;;;;;;;;;;;;;;;22.04;48.84;99873.34;4468676;32;34352;-63
2022/09/04 03:53:28;;;;;;;;;;;;;;;21.98;49.26;99879.53;4477429;32;33312;-63
2022/09/04 03:55:59;;;;;;;;;;;;;;;21.90;49.31;99884.22;4474478;32;34201;-62
2022/09/04 03:58:46;;;;;;;;;;;;;;;21.65;50.03;99886.31;4471617;32;35202;-63
2022/09/04 04:01:23;;;;;;;;;;;;;;;21.91;49.30;99878.59;4472286;31;35295;-62
2022/09/04 04:03:54;;;;;;;;;;;;;;;21.89;49.40;99883.34;4482707;32;33417;-62
2022/09/04 04:06:39;;;;;;;;;;;;;;;22.01;49.00;99886.50;4483590;31;34203;-62
2022/09/04 04:09:17;;;;;;;;;;;;;;;21.94;49.05;99889.13;4469400;32;34845;-62
2022/09/04 04:11:45;;;;;;;;;;;;;;;21.94;49.17;99893.72;4465054;32;37423;-62
2022/09/04 04:14:51;;;;;;;;;;;;;;;22.02;48.88;99897.22;4480031;32;34677;-62
2022/09/04 04:17:30;;;;;;;;;;;;;;;22.09;48.64;99894.59;4432638;32;34008;-61
2022/09/04 04:20:04;;;;;;;;;;;;;;;21.90;49.07;99903.31;4432718;32;34919;-63
2022/09/04 04:22:51;;;;;;;;;;;;;;;21.97;49.10;99916.00;4447534;32;34155;-62
2022/09/04 04:25:41;;;;;;;;;;;;;;;21.94;49.22;99916.38;4475989;32;32251;-62
2022/09/04 04:28:23;;;;;;;;;;;;;;;22.01;48.64;99914.59;4465808;32;33957;-62
2022/09/04 04:30:51;;;;;;;;;;;;;;;21.92;48.86;99929.31;4467786;32;33482;-61
2022/09/04 04:33:21;;;;;;;;;;;;;;;21.90;48.81;99927.84;4475275;31;33046;-62
2022/09/04 04:35:59;;;;;;;;;;;;;;;21.66;49.50;99923.41;4470836;32;32740;-61
2022/09/04 04:38:26;;;;;;;;;;;;;;;21.37;50.34;99935.88;4475680;31;33716;-62
2022/09/04 04:41:13;;;;;;;;;;;;;;;21.21;50.90;99935.94;4472795;32;34032;-62
2022/09/04 04:43:44;;;;;;;;;;;;;;;21.43;50.25;99939.75;4481012;32;34457;-63
2022/09/04 04:46:20;;;;;;;;;;;;;;;21.48;50.31;99943.62;4479825;32;32940;-63
2022/09/04 04:48:56;;;;;;;;;;;;;;;21.47;50.55;99941.91;4478089;32;34045;-62
2022/09/04 04:51:39;;;;;;;;;;;;;;;21.23;51.15;99939.34;4477220;32;34439;-62
2022/09/04 04:54:16;;;;;;;;;;;;;;;21.33;50.92;99946.25;4482720;32;34136;-62
2022/09/04 04:56:44;;;;;;;;;;;;;;;21.35;50.81;99948.84;4481995;31;31715;-62
2022/09/04 04:59:31;;;;;;;;;;;;;;;21.54;50.19;99959.25;4478627;32;33973;-63
2022/09/04 05:02:15;;;;;;;;;;;;;;;21.54;50.30;99958.38;4480191;31;33022;-62
2022/09/04 05:04:49;;;;;;;;;;;;;;;21.31;50.98;99956.44;4466224;32;34848;-63
2022/09/04 05:07:33;;;;;;;;;;;;;;;20.92;52.31;99961.91;4476319;32;33546;-63
2022/09/04 05:10:05;;;;;;;;;;;;;;;20.80;52.57;99956.03;4468640;32;34195;-62
2022/09/04 05:12:51;;;;;;;;;;;;;;;20.66;53.29;99957.59;4466953;32;33126;-65
2022/09/04 05:15:22;;;;;;;;;;;;;;;20.87;52.94;99962.47;4476301;32;35357;-65
2022/09/04 05:17:50;;;;;;;;;;;;;;;20.92;52.94;99962.75;4481168;32;33608;-63
2022/09/04 05:20:26;;;;;;;;;;;;;;;20.99;52.89;99962.06;4468717;32;33661;-62
2022/09/04 05:23:12;;;;;;;;;;;;;;;21.29;52.20;99963.13;4465957;32;35249;-62
2022/09/04 05:25:59;;;;;;;;;;;;;;;21.52;51.64;99966.75;4470763;31;33255;-62
2022/09/04 05:28:33;;;;;;;;;;;;;;;21.56;51.71;99967.22;4478030;31;33772;-62
2022/09/04 05:31:10;;;;;;;;;;;;;;;21.66;51.04;99973.28;4474366;32;32991;-63
2022/09/04 05:33:48;;;;;;;;;;;;;;;21.95;50.09;99978.00;4474563;32;34496;-63
2022/09/04 05:36:18;;;;;;;;;;;;;;;22.02;49.81;99973.53;4475450;32;33820;-62
2022/09/04 05:38:52;;;;;;;;;;;;;;;21.59;51.05;99970.44;4469926;32;32341;-62
2022/09/04 05:41:46;;;;;;;;;;;;;;;21.70;50.84;99984.66;4479676;32;33989;-62
2022/09/04 05:44:22;;;;;;;;;;;;;;;21.58;51.23;99987.81;4471237;32;35428;-63
2022/09/04 05:46:49;;;;;;;;;;;;;;;21.42;51.52;99987.91;4479282;32;33050;-62
2022/09/04 05:49:32;;;;;;;;;;;;;;;21.26;52.15;99994.25;4481057;31;34323;-63
2022/09/04 05:52:07;;;;;;;;;;;;;;;21.35;51.88;99995.13;4473909;32;35235;-63
2022/09/04 05:54:35;;;;;;;;;;;;;;;21.30;52.09;99997.47;4480391;32;35650;-63
2022/09/04 05:57:35;;;;;;;;;;;;;;;21.23;52.37;99999.22;4468659;31;34195;-62
2022/09/04 06:00:05;;;;;;;;;;;;;;;20.91;53.14;99992.87;4449814;31;31845;-63
2022/09/04 06:02:38;;;;;;;;;;;;;;;20.75;53.61;99993.78;4472841;32;35190;-62
2022/09/04 06:05:18;;;;;;;;;;;;;;;20.35;55.03;99986.50;4470407;32;34338;-63
2022/09/04 06:08:06;;;;;;;;;;;;;;;20.46;54.68;99988.88;4467355;32;34446;-62
2022/09/04 06:10:51;;;;;;;;;;;;;;;20.40;54.74;99995.00;4470331;32;33623;-62
2022/09/04 06:13:36;;;;;;;;;;;;;;;20.11;55.44;99995.53;4474301;32;34450;-63
2022/09/04 06:16:22;;;;;;;;;;;;;;;20.05;55.60;100004.38;4479693;32;32918;-63
2022/09/04 06:19:01;;;;;;;;;;;;;;;19.99;55.98;99990.44;4470196;32;35380;-62
2022/09/04 06:21:48;;;;;;;;;;;;;;;19.81;56.52;99997.91;4480909;32;33373;-62
2022/09/04 06:24:18;;;;;;;;;;;;;;;19.84;56.16;99996.72;4478683;32;32753;-62
2022/09/04 06:27:04;;;;;;;;;;;;;;;19.51;56.90;100000.19;4471127;32;35440;-62
2022/09/04 06:29:51;;;;;;;;;;;;;;;19.31;57.91;100001.50;4470481;32;35525;-62
2022/09/04 06:32:25;;;;;;;;;;;;;;;19.77;56.86;100005.56;4478262;32;33323;-62
2022/09/04 06:35:02;;;;;;;;;;;;;;;20.04;56.03;100002.69;4483762;32;34194;-63
2022/09/04 06:37:38;;;;;;;;;;;;;;;20.02;55.80;100008.28;4479437;32;33479;-63
2022/09/04 06:40:06;;;;;;;;;;;;;;;20.30;55.11;100007.94;4471559;32;34482;-62
2022/09/04 06:42:52;;;;;;;;;;;;;;;19.88;55.94;100006.25;4478224;32;34656;-62
2022/09/04 06:45:42;;;;;;;;;;;;;;;19.97;55.85;100014.22;4474259;32;33867;-62
2022/09/04 06:48:12;;;;;;;;;;;;;;;19.91;55.94;100017.63;4473870;32;35895;-62
2022/09/04 06:50:49;;;;;;;;;;;;;;;19.95;55.26;100020.84;4475960;32;34738;-62
2022/09/04 06:53:18;;;;;;;;;;;;;;;19.67;56.61;100029.28;4469400;32;32953;-62
2022/09/04 06:55:49;;;;;;;;;;;;;;;20.05;55.71;100031.53;4472596;32;34941;-62
2022/09/04 06:58:22;;;;;;;;;;;;;;;19.91;55.82;100028.47;4475615;32;34262;-62
2022/09/04 07:00:52;;;;;;;;;;;;;;;19.84;56.00;100023.87;4468989;32;34524;-62
2022/09/04 07:03:26;;;;;;;;;;;;;;;19.86;56.37;100036.28;4469911;32;32270;-62
2022/09/04 07:05:59;;;;;;;;;;;;;;;20.32;55.57;100033.94;4481023;32;33090;-62
2022/09/04 07:08:39;;;;;;;;;;;;;;;20.65;54.82;100037.50;4479347;32;35128;-62
2022/09/04 07:11:21;;;;;;;;;;;;;;;20.42;54.71;100036.47;4475162;32;35321;-63
2022/09/04 07:14:18;;;;;;;;;;;;;;;20.38;54.81;100043.25;4478989;32;33365;-63
2022/09/04 07:17:04;;;;;;;;;;;;;;;20.23;55.47;100043.09;4421883;31;34968;-63
2022/09/04 07:19:41;;;;;;;;;;;;;;;20.42;55.34;100039.19;4479286;32;33037;-63
2022/09/04 07:22:17;;;;;;;;;;;;;;;20.43;55.00;100036.28;4473796;32;36787;-63
2022/09/04 07:25:04;;;;;;;;;;;;;;;20.04;55.96;100038.84;4483560;32;33521;-63
2022/09/04 07:27:46;;;;;;;;;;;;;;;20.13;55.49;100035.12;4477618;32;33737;-62
2022/09/04 07:30:14;;;;;;;;;;;;;;;19.94;56.17;100041.72;4467616;32;33732;-63
2022/09/04 07:32:41;;;;;;;;;;;;;;;19.84;56.65;100042.88;4469362;32;34639;-63
2022/09/04 07:35:29;;;;;;;;;;;;;;;20.25;56.05;100049.19;4471270;32;32101;-62
2022/09/04 07:38:09;;;;;;;;;;;;;;;20.40;54.96;100057.53;4465933;32;33513;-62
2022/09/04 07:40:57;;;;;;;;;;;;;;;20.31;55.14;100048.53;4466434;32;35138;-62
2022/09/04 07:43:40;;;;;;;;;;;;;;;20.20;55.80;100052.44;4479611;32;34220;-63
2022/09/04 07:46:17;;;;;;;;;;;;;;;20.01;55.64;100055.50;4483911;32;32388;-62
2022/09/04 07:48:56;;;;;;;;;;;;;;;19.99;56.22;100060.22;4473400;32;33801;-62
2022/09/04 07:51:26;;;;;;;;;;;;;;;20.31;54.92;100055.84;4483220;32;34023;-62
2022/09/04 07:54:23;;;;;;;;;;;;;;;19.94;55.49;100054.47;4471412;32;33407;-62
2022/09/04 07:57:09;;;;;;;;;;;;;;;19.84;56.03;100056.47;4467036;32;33616;-61
2022/09/04 07:59:56;;;;;;;;;;;;;;;19.94;56.11;100055.31;4484983;32;34995;-61
2022/09/04 08:02:35;;;;;;;;;;;;;;;20.34;54.98;100066.38;4474840;32;34146;-62
2022/09/04 08:05:18;;;;;;;;;;;;;;;20.07;55.63;100073.84;4484255;32;34483;-62
2022/09/04 08:07:48;;;;;;;;;;;;;;;20.74;54.30;100078.25;4476773;32;34278;-61
2022/09/04 08:10:30;;;;;;;;;;;;;;;20.78;53.52;100080.47;4469469;32;35334;-62
2022/09/04 08:13:00;;;;;;;;;;;;;;;21.04;53.45;100093.00;4477168;32;34215;-63
2022/09/04 08:15:27;;;;;;;;;;;;;;;21.18;52.33;100087.66;4481343;32;33601;-62
2022/09/04 08:18:04;;;;;;;;;;;;;;;21.34;52.03;100094.94;4476622;32;33890;-62
2022/09/04 08:20:44;;;;;;;;;;;;;;;21.32;52.01;100088.00;4471677;32;32853;-62
2022/09/04 08:23:14;;;;;;;;;;;;;;;21.36;51.72;100094.81;4475392;32;34059;-62
2022/09/04 08:25:45;;;;;;;;;;;;;;;21.51;51.45;100093.06;4484042;32;34417;-63
2022/09/04 08:28:16;;;;;;;;;;;;;;;21.53;51.46;100092.88;4484391;32;33735;-63
2022/09/04 08:30:48;;;;;;;;;;;;;;;21.65;51.38;100096.06;4482130;32;33982;-62
2022/09/04 08:33:21;;;;;;;;;;;;;;;21.46;51.70;100098.16;4477195;32;34243;-63
2022/09/04 08:35:49;;;;;;;;;;;;;;;21.20;52.45;100101.13;4470002;32;35380;-62
2022/09/04 08:38:17;;;;;;;;;;;;;;;21.32;52.12;100096.16;4475273;32;33121;-62
2022/09/04 08:41:05;;;;;;;;;;;;;;;21.48;51.81;100092.56;4476988;32;35258;-62
2022/09/04 08:43:52;;;;;;;;;;;;;;;20.82;53.19;100100.88;4485039;32;34620;-62
2022/09/04 08:46:28;;;;;;;;;;;;;;;20.87;52.96;100103.94;4485919;32;35546;-62
2022/09/04 08:49:11;;;;;;;;;;;;;;;20.97;53.17;100103.75;4460641;32;32085;-62
2022/09/04 08:51:48;;;;;;;;;;;;;;;21.20;52.50;100109.28;4479172;32;33879;-62
2022/09/04 08:54:15;;;;;;;;;;;;;;;21.27;52.26;100101.28;4479876;32;34038;-62
2022/09/04 08:57:01;;;;;;;;;;;;;;;20.75;53.98;100109.91;4483505;32;35244;-62
2022/09/04 08:59:29;;;;;;;;;;;;;;;21.09;52.95;100102.34;4482366;32;33528;-62
2022/09/04 09:02:02;;;;;;;;;;;;;;;21.25;52.74;100100.59;4475793;32;35748;-62
2022/09/04 09:04:35;;;;;;;;;;;;;;;21.25;52.80;100106.03;4480056;32;34935;-62
2022/09/04 09:07:21;;;;;;;;;;;;;;;21.13;52.97;100108.31;4469084;32;34579;-62
2022/09/04 09:10:01;;;;;;;;;;;;;;;21.17;52.74;100098.75;4482099;32;32300;-62
2022/09/04 09:12:29;;;;;;;;;;;;;;;21.51;52.17;100111.25;4468056;32;37436;-62
2022/09/04 09:15:12;;;;;;;;;;;;;;;21.28;52.59;100113.84;4485562;32;32966;-62
2022/09/04 09:17:46;;;;;;;;;;;;;;;21.78;51.18;100107.22;4482120;32;33118;-62
2022/09/04 09:20:39;;;;;;;;;;;;;;;21.83;51.16;100107.53;4478918;32;34541;-63
2022/09/04 09:23:14;;;;;;;;;;;;;;;21.93;50.91;100108.16;4455680;31;32866;-62
2022/09/04 09:26:10;;;;;;;;;;;;;;;22.06;50.41;100105.69;4481983;32;35163;-62
2022/09/04 09:28:38;;;;;;;;;;;;;;;22.02;50.91;100111.66;4447304;31;34429;-63
2022/09/04 09:31:25;;;;;;;;;;;;;;;22.10;50.49;100111.63;4479414;32;33584;-63
2022/09/04 09:34:11;;;;;;;;;;;;;;;22.49;49.84;100116.97;4480990;32;34993;-62
2022/09/04 09:36:45;;;;;;;;;;;;;;;22.45;49.61;100128.44;4484969;32;33045;-63
2022/09/04 09:39:21;;;;;;;;;;;;;;;22.44;49.89;100121.28;4484235;32;34085;-63
2022/09/04 09:42:04;;;;;;;;;;;;;;;22.31;49.82;100110.97;4482502;32;32092;-63
2022/09/04 09:44:43;;;;;;;;;;;;;;;22.28;49.60;100112.22;4479232;32;33559;-62
2022/09/04 09:47:30;;;;;;;;;;;;;;;21.51;51.73;100120.28;4481975;32;32764;-62
2022/09/04 09:50:00;;;;;;;;;;;;;;;22.19;50.40;100113.31;4484265;32;34567;-62
2022/09/04 09:52:28;;;;;;;;;;;;;;;22.14;50.66;100114.84;4484798;32;32416;-62
2022/09/04 09:54:55;;;;;;;;;;;;;;;22.34;49.60;100116.06;4484576;32;35316;-63
2022/09/04 09:57:42;;;;;;;;;;;;;;;22.66;48.96;100114.13;4482859;32;34403;-63
2022/09/04 10:00:10;;;;;;;;;;;;;;;22.46;49.80;100120.06;4479614;32;35727;-63
2022/09/04 10:02:38;;;;;;;;;;;;;;;22.95;48.71;100116.09;4467340;32;33439;-62
2022/09/04 10:05:08;;;;;;;;;;;;;;;23.04;48.19;100114.97;4478785;32;34384;-63
2022/09/04 10:07:48;;;;;;;;;;;;;;;23.18;47.80;100116.03;4483764;32;34231;-62
2022/09/04 10:10:19;;;;;;;;;;;;;;;23.16;48.24;100118.09;4470803;32;34399;-63
2022/09/04 10:13:00;;;;;;;;;;;;;;;23.21;47.86;100118.37;4479161;32;32607;-62
2022/09/04 10:15:45;;;;;;;;;;;;;;;22.90;48.43;100110.31;4478989;32;35107;-62
2022/09/04 10:18:32;;;;;;;;;;;;;;;22.99;48.32;100117.44;4480462;32;34024;-63
2022/09/04 10:21:19;;;;;;;;;;;;;;;22.91;48.46;100110.12;4481243;32;32937;-63
2022/09/04 10:23:49;;;;;;;;;;;;;;;22.85;48.68;100120.94;4474333;32;32815;-63
2022/09/04 10:26:20;;;;;;;;;;;;;;;23.00;48.60;100116.38;4468046;32;33678;-63
2022/09/04 10:29:08;;;;;;;;;;;;;;;22.97;48.76;100122.22;4483648;32;34547;-63
2022/09/04 10:31:51;;;;;;;;;;;;;;;23.10;48.63;100118.84;4469117;32;34371;-63
2022/09/04 10:34:22;;;;;;;;;;;;;;;22.96;48.95;100113.19;4470437;32;32059;-63
2022/09/04 10:37:09;;;;;;;;;;;;;;;23.15;48.54;100119.16;4483640;32;32744;-62
2022/09/04 10:42:30;;;;;;;;;;;;;;;23.28;50.09;100127.53;4472312;32;35126;-63
2022/09/04 10:45:14;;;;;;;;;;;;;;;23.34;50.91;100126.78;4483083;32;32044;-63
2022/09/04 10:48:01;;;;;;;;;;;;;;;23.32;51.55;100125.25;4477845;32;33995;-62
2022/09/04 10:50:31;;;;;;;;;;;;;;;23.35;51.98;100131.19;4477072;32;34955;-63
2022/09/04 10:53:19;;;;;;;;;;;;;;;23.45;52.18;100133.62;4484095;32;33065;-63
2022/09/04 10:55:56;;;;;;;;;;;;;;;23.38;52.42;100133.53;4484035;32;33535;-63
2022/09/04 10:58:24;;;;;;;;;;;;;;;23.37;52.54;100131.87;4483818;32;33953;-63
2022/09/04 11:01:10;;;;;;;;;;;;;;;23.43;52.64;100131.09;4482790;32;35104;-62
2022/09/04 11:03:42;;;;;;;;;;;;;;;23.38;52.93;100129.97;4472521;32;35170;-62
2022/09/04 11:06:28;;;;;;;;;;;;;;;23.40;52.62;100138.81;4485087;32;34132;-63
2022/09/04 11:09:05;;;;;;;;;;;;;;;23.46;52.82;100140.78;4485181;32;34035;-63
2022/09/04 11:11:32;;;;;;;;;;;;;;;23.60;51.89;100136.38;4479524;32;34129;-62
2022/09/04 11:14:09;;;;;;;;;;;;;;;23.36;51.03;100134.75;4479643;32;34259;-62
2022/09/04 11:16:46;;;;;;;;;;;;;;;23.41;51.40;100130.44;4486813;32;33681;-63
2022/09/04 11:19:32;;;;;;;;;;;;;;;23.53;51.08;100138.16;4467534;32;34225;-62
2022/09/04 11:22:19;;;;;;;;;;;;;;;23.60;50.16;100139.09;4474555;32;34335;-63
2022/09/04 11:25:05;;;;;;;;;;;;;;;23.48;50.34;100134.09;4483032;32;33361;-63
2022/09/04 11:27:43;;;;;;;;;;;;;;;23.34;50.46;100132.25;4479092;32;32349;-63
2022/09/04 11:30:17;;;;;;;;;;;;;;;23.09;51.13;100131.66;4482707;32;34243;-63
2022/09/04 11:33:05;;;;;;;;;;;;;;;23.10;50.36;100133.34;4481105;32;34812;-64
2022/09/04 11:35:45;;;;;;;;;;;;;;;23.10;50.87;100132.50;4484576;32;34374;-63
2022/09/04 11:38:31;;;;;;;;;;;;;;;23.19;50.26;100142.31;4483619;32;33726;-64
2022/09/04 11:41:18;;;;;;;;;;;;;;;23.48;49.02;100142.31;4483269;32;33114;-62
2022/09/04 11:44:00;;;;;;;;;;;;;;;23.29;47.99;100140.12;4482235;32;32523;-63
2022/09/04 11:46:48;;;;;;;;;;;;;;;23.39;48.19;100129.78;4476446;32;34195;-63
2022/09/04 11:49:24;;;;;;;;;;;;;;;23.04;48.41;100125.88;4478053;32;32946;-62
2022/09/04 11:52:10;;;;;;;;;;;;;;;23.49;47.54;100130.31;4483668;32;35318;-63
2022/09/04 11:54:37;;;;;;;;;;;;;;;23.68;46.83;100122.59;4483684;32;33852;-62
2022/09/04 11:57:28;;;;;;;;;;;;;;;23.53;46.93;100128.09;4479826;32;33115;-63
2022/09/04 11:59:58;;;;;;;;;;;;;;;23.52;47.68;100115.44;4453938;32;33451;-63
2022/09/04 12:02:29;;;;;;;;;;;;;;;23.19;48.51;100112.25;4480662;32;34327;-63
2022/09/04 12:05:14;;;;;;;;;;;;;;;23.70;48.21;100106.91;4479465;32;34125;-63
2022/09/04 12:07:42;;;;;;;;;;;;;;;23.75;47.30;100098.09;4473309;32;33880;-63
2022/09/04 12:10:15;;;;;;;;;;;;;;;23.36;47.25;100108.28;4480675;32;32333;-62
2022/09/04 12:13:09;;;;;;;;;;;;;;;23.67;46.54;100099.88;4482539;32;35367;-63
2022/09/04 12:15:44;;;;;;;;;;;;;;;23.85;46.52;100102.25;4481006;31;32647;-63
2022/09/04 12:18:40;;;;;;;;;;;;;;;23.79;45.60;100102.16;4480857;32;33661;-62
2022/09/04 12:21:24;;;;;;;;;;;;;;;23.96;45.67;100102.78;4459117;31;34729;-63
2022/09/04 12:23:52;;;;;;;;;;;;;;;24.17;44.96;100098.19;4476691;32;35604;-62
2022/09/04 12:26:36;;;;;;;;;;;;;;;24.29;43.98;100090.28;4484702;32;34301;-63
2022/09/04 12:29:37;;;;;;;;;;;;;;;24.28;43.89;100094.09;4475183;32;34332;-63
2022/09/04 12:32:14;;;;;;;;;;;;;;;24.34;44.13;100096.03;4479966;32;33192;-62
2022/09/04 12:34:41;;;;;;;;;;;;;;;24.28;43.25;100096.81;4484083;32;34694;-63
2022/09/04 12:37:27;;;;;;;;;;;;;;;24.29;42.72;100094.91;4483515;32;33072;-63
2022/09/04 12:40:05;;;;;;;;;;;;;;;24.13;43.78;100091.41;4478326;32;35184;-63
2022/09/04 12:42:40;;;;;;;;;;;;;;;24.50;43.51;100099.59;4470350;32;32294;-62
2022/09/04 12:45:20;;;;;;;;;;;;;;;24.57;43.09;100084.91;4457275;32;33839;-63
2022/09/04 12:48:09;;;;;;;;;;;;;;;24.57;42.45;100086.81;4469810;32;34953;-63
2022/09/04 12:50:44;;;;;;;;;;;;;;;24.46;43.06;100088.16;4480364;32;33937;-63
2022/09/04 12:53:18;;;;;;;;;;;;;;;24.57;41.59;100078.59;4484225;32;32245;-63
2022/09/04 12:55:57;;;;;;;;;;;;;;;24.53;41.87;100082.78;4480078;32;34061;-63
2022/09/04 12:58:44;;;;;;;;;;;;;;;24.62;42.16;100087.03;4484905;32;34364;-63
2022/09/04 13:01:14;;;;;;;;;;;;;;;24.58;43.03;100075.66;4470169;32;31581;-62
2022/09/04 13:03:54;;;;;;;;;;;;;;;24.70;41.69;100078.69;4485341;32;32136;-62
2022/09/04 13:06:33;;;;;;;;;;;;;;;24.73;41.62;100078.31;4482878;32;34241;-63
2022/09/04 13:09:07;;;;;;;;;;;;;;;24.70;42.52;100075.13;4470670;32;35092;-63
2022/09/04 13:11:37;;;;;;;;;;;;;;;25.12;42.08;100070.56;4471214;32;33234;-63
2022/09/04 13:14:06;;;;;;;;;;;;;;;25.20;42.34;100070.41;4478582;32;33092;-62
2022/09/04 13:16:56;;;;;;;;;;;;;;;24.82;42.04;100060.69;4480916;32;32803;-64
2022/09/04 13:19:32;;;;;;;;;;;;;;;24.83;41.92;100062.38;4462432;32;34012;-63
2022/09/04 13:22:09;;;;;;;;;;;;;;;24.79;42.89;100066.56;4468964;32;34040;-63
2022/09/04 13:24:56;;;;;;;;;;;;;;;25.26;42.43;100062.22;4482509;32;34059;-63
2022/09/04 13:27:33;;;;;;;;;;;;;;;25.27;42.34;100058.47;4481555;32;35416;-63
2022/09/04 13:30:00;;;;;;;;;;;;;;;25.07;41.86;100051.97;4461598;32;32612;-62
2022/09/04 13:32:53;;;;;;;;;;;;;;;24.97;42.32;100062.47;4473141;32;34963;-63
2022/09/04 13:35:30;;;;;;;;;;;;;;;25.24;42.00;100064.34;4457827;32;33215;-63
2022/09/04 13:38:18;;;;;;;;;;;;;;;25.31;41.74;100059.75;4466948;32;33555;-63